Main page
METAR-TAF:

METAR-TAF

Airports :

Cristiano Ronaldo International Airport

Funchal, Madeira, Portugal

latitude: 32-41-52N, longitude: 016-46-28W, elevation: 59 m

Current weather observation

The report was made 35 minutes ago, at 21:00 UTC
Wind 2 kt from variable directions
Temperature 20°C
Humidity 73%
Pressure 1019 hPa
Visibility 10 km or more
Few clouds at a height of 1600 ft

METAR: LPMA 282100Z VRB02KT 9999 FEW016 20/15 Q1019

Time: 22:35 (21:35 UTC)

Forecast

The report was made 4 hours and 35 minutes ago, at 17:00 UTC
Forecast valid from 28 at 18 UTC to 29 at 18 UTC
Wind 5 kt from variable directions
Visibility 10 km or more
Scattered clouds at a height of 1600 ft
Temporary
from 29 at 00 UTC to 29 at 18 UTC
Wind 10 kt from the West/Southwest
Visibility: 8000 m
Scattered clouds at a height of 1200 ft
Broken clouds at a height of 3000 ft
light rain

TAF: LPMA 281700Z 2818/2918 VRB05KT 9999 SCT016 TEMPO 2900/2918 24010KT 8000 -RA SCT012 BKN030

Weather observations and forecasts of more than 4000 airports (METAR and TAF reports).

The available stations are represented by yellow and red dots on the map.

Hover mouse over dot to see the name of the station.

Then click to see weather observations and forecasts.

To change the map : click on the green buttons with a black cross to zoom in, on the green button with a dash to zoom out, or on the green arrows for adjacent maps.


METAR-TAF: